Time;durP1;ratioP1;P1;durP2;ratioP2;P2;SDS_P1;SDS_P2;PMS_P1;PMS_P2;Temp;Humidity;BMP_temperature;BMP_pressure;BME280_temperature;BME280_humidity;BME280_pressure;Samples;Min_cycle;Max_cycle;Signal;HPM_P1;HPM_P2
2023/08/31 00:00:53;;;;;;;0.20;0.20;;;24.90;90.80;;;;;;6305269;22;20154;-88
2023/08/31 00:03:21;;;;;;;2.83;1.30;;;24.90;90.80;;;;;;6302947;22;20177;-87
2023/08/31 00:05:51;;;;;;;2.17;0.57;;;24.90;90.70;;;;;;6305662;22;20161;-86
2023/08/31 00:08:22;;;;;;;0.57;0.50;;;24.90;90.80;;;;;;6304184;22;20169;-87
2023/08/31 00:10:58;;;;;;;1.45;0.63;;;24.90;90.80;;;;;;6304348;22;20165;-86
2023/08/31 00:13:27;;;;;;;0.50;0.50;;;24.90;90.80;;;;;;6300827;22;20161;-89
2023/08/31 00:15:59;;;;;;;0.25;0.25;;;24.90;90.80;;;;;;6303033;22;20165;-87
2023/08/31 00:18:28;;;;;;;0.40;0.40;;;24.90;90.80;;;;;;6303829;22;20197;-88
2023/08/31 00:20:57;;;;;;;1.15;0.63;;;24.90;90.70;;;;;;6303639;22;20176;-87
2023/08/31 00:23:26;;;;;;;0.43;0.43;;;24.90;90.90;;;;;;6300977;22;20172;-86
2023/08/31 00:25:57;;;;;;;0.40;0.40;;;24.90;91.00;;;;;;6303180;22;20478;-86
2023/08/31 00:28:30;;;;;;;0.20;0.20;;;24.80;91.10;;;;;;6303424;22;20150;-86
2023/08/31 00:31:03;;;;;;;0.73;0.57;;;24.90;91.10;;;;;;6301112;22;20169;-86
2023/08/31 00:33:33;;;;;;;0.20;0.20;;;24.90;91.10;;;;;;6306036;22;20169;-88
2023/08/31 00:36:03;;;;;;;0.60;0.52;;;24.80;91.10;;;;;;6303008;22;20165;-86
2023/08/31 00:38:31;;;;;;;1.98;0.75;;;24.80;91.20;;;;;;6304919;22;20193;-87
2023/08/31 00:41:01;;;;;;;0.60;0.60;;;24.80;91.40;;;;;;6302914;22;20185;-88
2023/08/31 00:43:33;;;;;;;0.70;0.68;;;24.80;91.50;;;;;;6304785;22;20240;-89
2023/08/31 00:46:02;;;;;;;1.17;1.08;;;24.80;91.40;;;;;;6302767;22;20161;-85
2023/08/31 00:48:31;;;;;;;0.82;0.68;;;24.80;91.30;;;;;;6305326;22;20680;-88
2023/08/31 00:51:00;;;;;;;0.32;0.32;;;24.80;91.20;;;;;;6305108;22;20168;-88
2023/08/31 00:53:30;;;;;;;0.40;0.32;;;24.80;91.10;;;;;;6306309;22;20165;-88
2023/08/31 00:55:59;;;;;;;0.63;0.63;;;24.80;91.00;;;;;;6306555;22;20188;-87
2023/08/31 00:58:28;;;;;;;0.60;0.55;;;24.80;91.10;;;;;;6306264;22;20204;-87
2023/08/31 01:01:06;;;;;;;1.77;0.45;;;24.80;91.00;;;;;;6304953;22;20188;-88
2023/08/31 01:03:43;;;;;;;2.30;0.55;;;24.80;91.00;;;;;;6305573;22;20169;-87
2023/08/31 01:06:19;;;;;;;0.30;0.30;;;24.70;91.00;;;;;;6306125;22;20157;-86
2023/08/31 01:08:59;;;;;;;0.20;0.20;;;24.80;90.90;;;;;;6307045;22;20192;-88
2023/08/31 01:11:35;;;;;;;0.40;0.40;;;24.70;90.80;;;;;;6306840;22;20531;-87
2023/08/31 01:14:11;;;;;;;0.30;0.30;;;24.80;90.80;;;;;;6306266;22;20173;-89
2023/08/31 01:16:44;;;;;;;0.40;0.40;;;24.80;90.70;;;;;;6305268;22;20173;-89
2023/08/31 01:19:31;;;;;;;1.20;0.82;;;24.70;90.70;;;;;;6304603;22;20216;-89
2023/08/31 01:22:06;;;;;;;0.40;0.30;;;24.70;90.70;;;;;;6303669;22;20748;-87
2023/08/31 01:24:37;;;;;;;0.40;0.40;;;24.70;90.60;;;;;;6306858;22;20171;-89
2023/08/31 01:27:07;;;;;;;0.32;0.32;;;24.70;90.60;;;;;;6303856;22;20161;-88
2023/08/31 01:29:36;;;;;;;0.15;0.15;;;24.70;90.50;;;;;;6307080;22;20311;-89
2023/08/31 01:32:08;;;;;;;0.38;0.38;;;24.70;90.50;;;;;;6304601;22;20165;-88
2023/08/31 01:34:36;;;;;;;0.20;0.20;;;24.70;90.50;;;;;;6306997;22;20185;-89
2023/08/31 01:37:12;;;;;;;0.40;0.40;;;24.70;90.50;;;;;;6303836;22;20188;-87
2023/08/31 01:39:47;;;;;;;0.45;0.45;;;24.60;90.40;;;;;;6304367;22;20803;-89
2023/08/31 01:42:17;;;;;;;0.20;0.20;;;24.60;90.40;;;;;;6303339;22;20559;-86
2023/08/31 01:44:49;;;;;;;0.40;0.25;;;24.60;90.40;;;;;;6303703;22;20218;-88
2023/08/31 01:47:19;;;;;;;8.30;0.57;;;24.60;90.40;;;;;;6304318;22;20252;-87
2023/08/31 01:49:52;;;;;;;0.30;0.25;;;24.60;90.30;;;;;;6303955;22;20226;-89
2023/08/31 01:52:27;;;;;;;0.20;0.20;;;24.60;90.30;;;;;;6304492;22;20244;-89
2023/08/31 01:55:13;;;;;;;0.65;0.63;;;24.60;90.20;;;;;;6306544;22;20207;-88
2023/08/31 01:57:46;;;;;;;0.20;0.20;;;24.60;90.20;;;;;;6305148;22;20157;-89
2023/08/31 02:00:21;;;;;;;0.40;0.30;;;24.60;90.10;;;;;;6305964;22;20165;-90
2023/08/31 02:02:58;;;;;;;0.20;0.20;;;24.60;90.10;;;;;;6304635;22;20503;-89
2023/08/31 02:05:45;;;;;;;0.15;0.15;;;24.60;90.10;;;;;;6304514;22;20662;-91
2023/08/31 02:08:41;;;;;;;0.40;0.40;;;24.70;90.10;;;;;;6305568;22;20164;-89
2023/08/31 02:11:39;;;;;;;0.28;0.28;;;24.70;90.10;;;;;;6337325;22;20264;-89
2023/08/31 02:14:33;;;;;;;0.40;0.35;;;24.60;90.00;;;;;;6338632;22;20202;-88
2023/08/31 02:17:04;;;;;;;0.32;0.32;;;24.70;90.00;;;;;;6336043;22;20164;-86
2023/08/31 02:19:35;;;;;;;0.75;0.40;;;24.70;90.00;;;;;;6338285;22;20271;-88
2023/08/31 02:22:04;;;;;;;0.35;0.35;;;24.60;90.00;;;;;;6335350;22;20164;-87
2023/08/31 02:24:36;;;;;;;0.20;0.20;;;24.60;90.00;;;;;;6334814;22;20634;-87
2023/08/31 02:27:09;;;;;;;0.57;0.45;;;24.60;90.00;;;;;;6333341;22;20226;-88
2023/08/31 02:29:37;;;;;;;0.25;0.25;;;24.60;90.10;;;;;;6336083;22;20251;-86
2023/08/31 02:32:09;;;;;;;1.10;0.50;;;24.60;90.10;;;;;;6336709;22;20175;-88
2023/08/31 02:34:38;;;;;;;0.28;0.28;;;24.60;90.10;;;;;;6335862;22;20171;-89
2023/08/31 02:37:06;;;;;;;0.20;0.20;;;24.60;90.10;;;;;;6336779;22;20199;-89
2023/08/31 02:39:35;;;;;;;0.20;0.20;;;24.60;90.10;;;;;;6335305;22;20234;-88
2023/08/31 02:42:05;;;;;;;0.20;0.20;;;24.60;90.00;;;;;;6335413;22;20179;-88
2023/08/31 02:44:35;;;;;;;0.50;0.40;;;24.60;90.00;;;;;;6334644;22;20172;-89
2023/08/31 02:47:04;;;;;;;0.50;0.50;;;24.60;90.00;;;;;;6335772;22;20175;-89
2023/08/31 02:50:08;;;;;;;0.50;0.50;;;24.50;90.00;;;;;;6338271;22;20482;-88
2023/08/31 02:52:50;;;;;;;1.15;0.43;;;24.60;90.00;;;;;;6301483;22;20195;-89
2023/08/31 02:55:21;;;;;;;0.38;0.38;;;24.60;89.90;;;;;;6329858;22;20511;-89
2023/08/31 02:57:50;;;;;;;0.32;0.32;;;24.50;90.00;;;;;;6337984;22;20192;-88
2023/08/31 03:04:21;;;;;;;0.32;0.32;;;24.50;89.80;;;;;;6325509;22;20171;-90
2023/08/31 03:07:15;;;;;;;0.73;0.73;;;24.50;89.70;;;;;;6332048;22;20165;-89
2023/08/31 03:09:50;;;;;;;0.45;0.45;;;24.50;89.70;;;;;;6338773;22;20290;-86
2023/08/31 03:12:20;;;;;;;0.95;0.38;;;24.50;90.10;;;;;;6337330;22;20239;-88
2023/08/31 03:18:24;;;;;;;0.70;0.70;;;24.40;89.50;;;;;;6310766;22;20208;-87
2023/08/31 03:20:53;;;;;;;0.68;0.45;;;24.40;89.40;;;;;;6305168;22;20536;-87
2023/08/31 03:23:22;;;;;;;0.40;0.40;;;24.40;89.30;;;;;;6305494;22;20165;-89
2023/08/31 03:25:52;;;;;;;0.47;0.30;;;24.40;89.20;;;;;;6306640;22;20172;-86
2023/08/31 03:28:23;;;;;;;0.22;0.22;;;24.40;89.20;;;;;;6304005;22;20165;-88
2023/08/31 03:30:57;;;;;;;0.20;0.20;;;24.40;89.10;;;;;;6305049;22;20586;-87
2023/08/31 03:33:32;;;;;;;0.50;0.40;;;24.30;89.10;;;;;;6306118;22;20207;-86
2023/08/31 03:36:24;;;;;;;0.57;0.40;;;24.30;90.00;;;;;;6301261;22;20203;-87
2023/08/31 03:39:38;;;;;;;;;;;;;;;;;;;;;
2023/08/31 03:43:06;;;;;;;;;;;;;;;;;;;;;
2023/08/31 03:46:32;;;;;;;0.20;0.20;;;24.20;89.40;;;;;;6246986;22;20209;-87
2023/08/31 04:30:17;;;;;;;0.65;0.65;;;24.10;90.30;;;;;;6310455;22;20210;-93
2023/08/31 04:35:45;;;;;;;0.57;0.40;;;24.10;90.20;;;;;;6312765;22;20269;-87
2023/08/31 04:38:14;;;;;;;0.55;0.55;;;24.10;90.30;;;;;;6325490;22;20191;-84
2023/08/31 04:40:43;;;;;;;1.75;0.30;;;24.10;90.30;;;;;;6327039;22;20205;-90
2023/08/31 04:43:12;;;;;;;0.35;0.35;;;24.10;90.40;;;;;;6327353;22;20173;-89
2023/08/31 04:45:42;;;;;;;1.63;1.02;;;24.00;90.40;;;;;;6328271;22;20196;-91
2023/08/31 04:48:11;;;;;;;1.38;0.80;;;24.00;90.50;;;;;;6326792;22;20598;-91
2023/08/31 04:50:39;;;;;;;0.75;0.75;;;24.10;90.60;;;;;;6326115;22;20173;-93
2023/08/31 04:53:08;;;;;;;0.70;0.70;;;24.10;90.50;;;;;;6329419;22;20149;-92
2023/08/31 04:56:13;;;;;;;0.25;0.25;;;24.10;90.60;;;;;;6318880;22;20165;-89
2023/08/31 05:02:18;;;;;;;1.05;0.95;;;24.10;90.90;;;;;;6220642;22;20172;-90
2023/08/31 05:04:53;;;;;;;0.50;0.50;;;24.10;90.80;;;;;;6308229;22;20165;-89
2023/08/31 05:07:42;;;;;;;0.80;0.80;;;24.20;90.90;;;;;;6307576;22;20540;-89
2023/08/31 05:10:37;;;;;;;0.93;0.75;;;24.20;90.90;;;;;;6305150;22;20297;-91
2023/08/31 05:13:29;;;;;;;0.75;0.75;;;24.20;90.90;;;;;;6306596;22;20172;-89
2023/08/31 05:15:59;;;;;;;0.35;0.35;;;24.20;91.00;;;;;;6307714;22;20154;-87
2023/08/31 05:18:33;;;;;;;2.60;0.77;;;24.20;91.20;;;;;;6305589;22;20215;-87
2023/08/31 05:21:02;;;;;;;2.63;1.60;;;24.30;91.30;;;;;;6304584;22;20192;-87
2023/08/31 05:24:01;;;;;;;0.60;0.60;;;24.30;91.30;;;;;;6308363;22;20238;-89
2023/08/31 05:26:35;;;;;;;1.35;1.10;;;24.30;91.20;;;;;;6307944;22;20603;-89
2023/08/31 05:29:05;;;;;;;5.55;0.70;;;24.40;91.20;;;;;;6306885;22;20154;-89
2023/08/31 05:31:33;;;;;;;0.52;0.52;;;24.50;91.20;;;;;;6305944;22;20645;-88
2023/08/31 05:34:04;;;;;;;0.52;0.52;;;24.60;91.20;;;;;;6308138;22;20257;-84
2023/08/31 05:36:32;;;;;;;3.95;1.30;;;24.60;91.20;;;;;;6310218;22;20171;-88
2023/08/31 05:39:24;;;;;;;1.75;0.85;;;24.70;91.20;;;;;;6337789;22;20161;-85
2023/08/31 05:42:00;;;;;;;2.45;1.90;;;24.80;91.40;;;;;;6305343;22;20197;-89
2023/08/31 05:44:34;;;;;;;0.30;0.30;;;24.80;91.60;;;;;;6304643;22;20165;-90
2023/08/31 05:47:05;;;;;;;0.40;0.40;;;24.80;91.50;;;;;;6304232;22;20169;-87
2023/08/31 05:49:35;;;;;;;1.30;0.75;;;24.90;91.50;;;;;;6304690;22;20169;-86
2023/08/31 05:52:06;;;;;;;0.20;0.20;;;24.90;91.60;;;;;;6300824;22;20497;-88
2023/08/31 05:54:35;;;;;;;3.03;1.48;;;25.00;91.70;;;;;;6304238;22;20157;-86
2023/08/31 05:57:05;;;;;;;1.20;0.85;;;25.00;91.80;;;;;;6304133;22;20168;-89
2023/08/31 05:59:34;;;;;;;0.60;0.60;;;25.00;91.70;;;;;;6306364;22;20240;-88
2023/08/31 06:02:04;;;;;;;13.65;2.67;;;25.10;91.70;;;;;;6306016;22;20196;-87
2023/08/31 06:04:35;;;;;;;0.77;0.50;;;25.20;91.60;;;;;;6307257;22;20193;-86
2023/08/31 06:07:03;;;;;;;2.05;1.17;;;25.20;91.70;;;;;;6305252;22;20161;-87
2023/08/31 06:09:39;;;;;;;0.50;0.50;;;25.30;91.80;;;;;;6308457;22;20165;-89
2023/08/31 06:12:08;;;;;;;1.23;0.80;;;25.40;91.60;;;;;;6305189;22;20550;-86
2023/08/31 06:14:36;;;;;;;0.43;0.43;;;25.50;91.60;;;;;;6307423;22;20193;-88
2023/08/31 06:17:05;;;;;;;0.82;0.82;;;25.60;91.60;;;;;;6304749;22;20165;-87
2023/08/31 06:19:36;;;;;;;1.38;1.27;;;25.60;91.40;;;;;;6306811;22;20240;-87
2023/08/31 06:22:06;;;;;;;0.30;0.30;;;25.70;91.40;;;;;;6305778;22;20674;-86
2023/08/31 06:24:36;;;;;;;0.63;0.47;;;25.80;91.40;;;;;;6307475;22;20164;-89
2023/08/31 06:27:05;;;;;;;0.77;0.63;;;25.80;91.30;;;;;;6306133;22;20199;-87
2023/08/31 06:29:34;;;;;;;0.85;0.60;;;26.00;91.20;;;;;;6305649;22;20161;-85
2023/08/31 06:32:03;;;;;;;1.02;0.80;;;26.00;91.10;;;;;;6279246;22;20165;-88
2023/08/31 06:34:32;;;;;;;0.43;0.35;;;26.10;91.00;;;;;;6307243;22;20199;-88
2023/08/31 06:37:02;;;;;;;0.50;0.50;;;26.10;90.80;;;;;;6306291;22;20165;-88
2023/08/31 06:39:32;;;;;;;0.95;0.50;;;26.20;90.80;;;;;;6307489;22;20677;-88
2023/08/31 06:42:01;;;;;;;2.00;0.68;;;26.20;90.60;;;;;;6329923;22;20227;-88
2023/08/31 06:44:30;;;;;;;0.40;0.40;;;26.20;90.30;;;;;;6337075;22;20577;-87
2023/08/31 06:46:58;;;;;;;0.63;0.63;;;26.30;90.20;;;;;;6336753;22;20247;-88
2023/08/31 06:49:27;;;;;;;1.05;0.85;;;26.30;90.10;;;;;;6338261;22;20187;-86
2023/08/31 06:51:55;;;;;;;0.32;0.32;;;26.40;90.10;;;;;;6336686;22;20187;-87
2023/08/31 06:54:26;;;;;;;1.45;1.15;;;26.40;90.00;;;;;;6338233;22;20534;-89
2023/08/31 06:56:54;;;;;;;11.80;1.58;;;26.50;89.60;;;;;;6338312;22;20247;-87
2023/08/31 06:59:23;;;;;;;8.95;0.55;;;26.50;89.30;;;;;;6337289;22;20168;-88
2023/08/31 07:01:53;;;;;;;0.65;0.55;;;26.50;89.40;;;;;;6337287;22;20195;-90
2023/08/31 07:04:22;;;;;;;0.57;0.57;;;26.50;89.50;;;;;;6338268;22;20165;-89
2023/08/31 07:06:51;;;;;;;0.77;0.73;;;26.60;89.30;;;;;;6338821;22;20222;-89
2023/08/31 07:09:20;;;;;;;3.60;0.68;;;26.60;88.90;;;;;;6337992;22;20160;-88
2023/08/31 07:11:50;;;;;;;0.40;0.40;;;26.70;88.90;;;;;;6337430;22;20200;-88
2023/08/31 07:14:19;;;;;;;0.57;0.57;;;26.70;88.90;;;;;;6339178;22;20465;-90
2023/08/31 07:16:47;;;;;;;0.30;0.30;;;26.80;88.70;;;;;;6336407;22;20164;-87
2023/08/31 07:19:16;;;;;;;0.77;0.60;;;26.80;88.40;;;;;;6337498;22;20161;-88
2023/08/31 07:21:44;;;;;;;0.75;0.65;;;26.80;88.40;;;;;;6336718;22;20188;-88
2023/08/31 07:24:12;;;;;;;0.68;0.47;;;26.90;88.30;;;;;;6339001;22;20161;-86
2023/08/31 07:26:41;;;;;;;0.45;0.45;;;27.00;88.20;;;;;;6337532;22;20558;-89
2023/08/31 07:29:11;;;;;;;1.42;0.77;;;27.10;88.00;;;;;;6337439;22;20247;-89
2023/08/31 07:31:39;;;;;;;1.98;0.73;;;27.10;87.80;;;;;;6337876;22;20183;-88
2023/08/31 07:34:08;;;;;;;1.15;0.82;;;27.10;87.40;;;;;;6338144;22;20160;-88
2023/08/31 07:36:42;;;;;;;0.85;0.85;;;27.20;87.20;;;;;;6336310;22;20605;-92
2023/08/31 07:39:10;;;;;;;1.00;0.93;;;27.30;87.00;;;;;;6338351;22;20210;-89
2023/08/31 07:41:39;;;;;;;2.50;1.05;;;27.30;86.70;;;;;;6337541;22;20687;-89
2023/08/31 07:44:08;;;;;;;3.08;0.75;;;27.40;87.10;;;;;;6338677;22;20160;-89
2023/08/31 07:46:38;;;;;;;0.55;0.45;;;27.40;84.70;;;;;;6338077;22;20168;-89
2023/08/31 07:49:07;;;;;;;0.30;0.30;;;27.40;84.30;;;;;;6338139;22;20163;-89
2023/08/31 07:51:35;;;;;;;0.57;0.57;;;27.50;84.70;;;;;;6339203;22;20167;-88
2023/08/31 07:54:04;;;;;;;0.45;0.45;;;27.60;84.40;;;;;;6339728;22;20598;-87
2023/08/31 07:56:45;;;;;;;0.63;0.60;;;27.70;84.50;;;;;;6338949;22;20160;-91
2023/08/31 07:59:17;;;;;;;0.38;0.30;;;27.70;83.20;;;;;;6340692;22;20157;-89
2023/08/31 08:01:48;;;;;;;0.57;0.57;;;27.70;82.50;;;;;;6337622;22;20198;-88
2023/08/31 08:04:19;;;;;;;0.60;0.60;;;27.70;82.50;;;;;;6339040;22;20166;-89
2023/08/31 08:07:00;;;;;;;0.50;0.50;;;27.80;82.30;;;;;;6340838;22;20181;-93
2023/08/31 08:09:32;;;;;;;0.35;0.35;;;27.90;82.40;;;;;;6339845;22;20217;-90
2023/08/31 08:12:00;;;;;;;0.30;0.30;;;28.00;82.40;;;;;;6338692;22;20171;-88
2023/08/31 08:14:30;;;;;;;0.70;0.70;;;28.10;82.00;;;;;;6340345;22;20247;-90
2023/08/31 08:17:01;;;;;;;1.25;0.80;;;28.00;79.90;;;;;;6338763;22;20165;-86
2023/08/31 08:19:33;;;;;;;0.52;0.52;;;28.10;80.30;;;;;;6338788;22;20164;-90
2023/08/31 08:22:05;;;;;;;1.30;0.98;;;28.20;80.10;;;;;;6339341;22;20188;-88
2023/08/31 08:24:33;;;;;;;1.30;1.05;;;28.30;80.70;;;;;;6339912;22;20168;-88
2023/08/31 08:27:02;;;;;;;4.38;0.75;;;28.30;79.90;;;;;;6338867;22;20184;-87
2023/08/31 08:29:30;;;;;;;0.82;0.60;;;28.30;78.30;;;;;;6340442;22;20160;-89
2023/08/31 08:32:05;;;;;;;1.27;0.38;;;28.40;77.00;;;;;;6311500;22;20164;-90
2023/08/31 08:34:49;;;;;;;0.40;0.40;;;28.50;76.30;;;;;;6340538;22;20213;-91
2023/08/31 08:37:17;;;;;;;1.20;0.73;;;28.50;75.00;;;;;;6333915;22;20167;-89
2023/08/31 08:39:50;;;;;;;0.65;0.60;;;28.60;74.40;;;;;;6340456;22;20175;-90
2023/08/31 08:42:25;;;;;;;1.45;0.55;;;28.60;74.60;;;;;;6309876;22;20228;-90
2023/08/31 08:45:03;;;;;;;0.57;0.57;;;28.70;74.90;;;;;;6308696;22;20481;-91
2023/08/31 08:47:34;;;;;;;0.95;0.50;;;28.80;75.20;;;;;;6307136;22;20168;-89
2023/08/31 08:50:08;;;;;;;0.57;0.57;;;28.90;75.70;;;;;;6308788;22;20200;-88
2023/08/31 08:52:42;;;;;;;0.90;0.40;;;28.90;74.90;;;;;;6308124;22;20598;-89
2023/08/31 08:55:23;;;;;;;0.50;0.50;;;29.00;74.40;;;;;;6308477;22;20157;-90
2023/08/31 08:57:52;;;;;;;0.90;0.65;;;29.10;74.10;;;;;;6307317;22;20165;-88
2023/08/31 09:00:21;;;;;;;0.43;0.30;;;29.10;73.10;;;;;;6308643;22;20187;-90
2023/08/31 09:02:56;;;;;;;0.60;0.57;;;29.10;72.60;;;;;;6307712;22;20189;-92
2023/08/31 09:05:25;;;;;;;0.85;0.57;;;29.20;72.30;;;;;;6308299;22;20169;-89
2023/08/31 09:08:04;;;;;;;1.30;0.60;;;29.30;72.40;;;;;;6307514;22;20169;-90
2023/08/31 09:10:40;;;;;;;0.43;0.43;;;29.30;72.70;;;;;;6308031;22;20238;-89
2023/08/31 09:13:15;;;;;;;1.58;0.47;;;29.30;70.80;;;;;;6308161;22;20160;-88
2023/08/31 09:16:06;;;;;;;0.80;0.63;;;29.40;70.90;;;;;;6307653;22;20161;-90
2023/08/31 09:18:36;;;;;;;0.65;0.60;;;29.50;70.20;;;;;;6308668;22;20189;-89
2023/08/31 09:21:05;;;;;;;1.10;0.85;;;29.50;70.20;;;;;;6307257;22;20161;-84
2023/08/31 09:23:39;;;;;;;0.90;0.50;;;29.60;69.40;;;;;;6308298;22;20161;-89
2023/08/31 09:26:10;;;;;;;0.68;0.35;;;29.70;69.10;;;;;;6306966;22;20240;-88
2023/08/31 09:28:43;;;;;;;1.00;0.95;;;29.70;68.30;;;;;;6308337;22;20219;-88
2023/08/31 09:31:12;;;;;;;0.28;0.28;;;29.80;66.50;;;;;;6307161;22;20161;-87
2023/08/31 09:33:51;;;;;;;0.47;0.30;;;29.80;66.50;;;;;;6308143;22;20170;-89
2023/08/31 09:36:25;;;;;;;0.40;0.40;;;29.90;66.10;;;;;;6307193;22;20168;-90
2023/08/31 09:38:56;;;;;;;2.40;0.98;;;30.00;64.10;;;;;;6309025;22;20164;-89
2023/08/31 09:41:25;;;;;;;0.75;0.73;;;30.00;64.00;;;;;;6308175;22;20268;-90
2023/08/31 09:43:53;;;;;;;4.32;1.00;;;30.00;62.00;;;;;;6309349;22;20177;-90
2023/08/31 09:46:23;;;;;;;10.85;0.82;;;30.10;61.30;;;;;;6306194;22;20173;-89
2023/08/31 09:48:57;;;;;;;0.20;0.20;;;30.10;61.70;;;;;;6308204;22;20161;-89
2023/08/31 09:51:29;;;;;;;1.10;0.95;;;30.10;60.00;;;;;;6306392;22;20161;-87
2023/08/31 09:54:03;;;;;;;1.88;0.77;;;30.20;60.80;;;;;;6308058;22;20603;-90
2023/08/31 09:56:34;;;;;;;0.38;0.30;;;30.40;61.90;;;;;;6306716;22;20239;-86
2023/08/31 09:59:03;;;;;;;0.75;0.57;;;30.40;61.30;;;;;;6306845;22;20161;-88
2023/08/31 10:01:31;;;;;;;0.40;0.40;;;30.40;58.60;;;;;;6305023;22;20235;-86
2023/08/31 10:04:05;;;;;;;0.88;0.82;;;30.40;58.80;;;;;;6307889;22;20165;-90
2023/08/31 10:06:34;;;;;;;1.45;0.90;;;30.50;56.90;;;;;;6307374;22;20165;-90
2023/08/31 10:09:08;;;;;;;1.63;0.52;;;30.50;57.60;;;;;;6307422;22;20481;-87
2023/08/31 10:11:44;;;;;;;0.55;0.50;;;30.50;56.80;;;;;;6308385;22;20195;-90
2023/08/31 10:14:17;;;;;;;0.90;0.75;;;30.60;56.80;;;;;;6306730;22;20560;-91
2023/08/31 10:16:47;;;;;;;0.35;0.35;;;30.70;57.40;;;;;;6305869;22;20215;-86
2023/08/31 10:19:19;;;;;;;0.45;0.45;;;30.70;57.40;;;;;;6307807;22;20548;-89
2023/08/31 10:21:54;;;;;;;0.85;0.68;;;30.80;57.30;;;;;;6305384;22;20565;-91
2023/08/31 10:24:58;;;;;;;0.50;0.50;;;30.80;57.80;;;;;;6306208;22;20169;-90
2023/08/31 10:27:28;;;;;;;0.90;0.73;;;30.80;56.80;;;;;;6306561;22;20644;-87
2023/08/31 10:29:57;;;;;;;0.70;0.70;;;30.90;57.80;;;;;;6307647;22;20664;-88
2023/08/31 10:32:29;;;;;;;1.95;0.80;;;30.90;57.60;;;;;;6306116;22;20171;-90
2023/08/31 10:35:09;;;;;;;0.50;0.43;;;30.90;56.60;;;;;;6307349;22;20171;-87
2023/08/31 10:37:43;;;;;;;0.40;0.40;;;30.90;56.70;;;;;;6306312;22;20181;-89
2023/08/31 10:40:15;;;;;;;1.40;0.82;;;30.80;55.60;;;;;;6306173;22;20595;-86
2023/08/31 10:42:45;;;;;;;2.35;1.08;;;30.80;55.50;;;;;;6305606;22;20184;-87
2023/08/31 10:45:14;;;;;;;4.43;0.63;;;30.90;56.00;;;;;;6305994;22;20198;-89
2023/08/31 10:47:43;;;;;;;2.17;1.45;;;31.00;55.40;;;;;;6306335;22;20204;-89
2023/08/31 10:50:25;;;;;;;0.32;0.32;;;31.10;55.20;;;;;;6307230;22;20165;-88
2023/08/31 10:52:54;;;;;;;0.73;0.73;;;31.20;55.00;;;;;;6305274;22;20188;-86
2023/08/31 10:55:27;;;;;;;0.60;0.60;;;31.20;54.40;;;;;;6306740;22;20181;-89
2023/08/31 10:58:13;;;;;;;0.47;0.28;;;31.30;54.50;;;;;;6305562;22;20244;-87
2023/08/31 11:00:51;;;;;;;8.00;1.15;;;31.40;54.50;;;;;;6305145;22;20159;-86
2023/08/31 11:03:31;;;;;;;6.93;0.63;;;31.50;54.40;;;;;;6306798;22;20185;-92
2023/08/31 11:06:04;;;;;;;0.73;0.70;;;31.50;53.90;;;;;;6305947;22;20214;-89
2023/08/31 11:08:33;;;;;;;1.08;0.52;;;31.50;53.10;;;;;;6307392;22;20605;-90
2023/08/31 11:11:01;;;;;;;1.52;1.08;;;31.60;53.20;;;;;;6305114;22;20161;-86
2023/08/31 11:13:30;;;;;;;0.47;0.47;;;31.70;54.00;;;;;;6306320;22;20701;-87
2023/08/31 11:15:59;;;;;;;1.70;0.40;;;31.70;53.60;;;;;;6305010;22;20165;-85
2023/08/31 11:18:27;;;;;;;0.35;0.35;;;31.70;53.70;;;;;;6304701;22;20172;-87
2023/08/31 11:20:57;;;;;;;0.57;0.57;;;31.80;54.20;;;;;;6305587;22;20222;-85
2023/08/31 11:23:28;;;;;;;0.77;0.20;;;31.80;53.70;;;;;;6306517;22;20200;-86
2023/08/31 11:25:56;;;;;;;0.38;0.30;;;32.00;54.40;;;;;;6306275;22;20232;-86
2023/08/31 11:28:26;;;;;;;1.05;0.60;;;32.00;53.10;;;;;;6306566;22;20180;-87
2023/08/31 11:30:54;;;;;;;5.75;2.20;;;32.00;52.10;;;;;;6305159;22;20242;-86
2023/08/31 11:33:33;;;;;;;1.27;1.17;;;31.90;51.30;;;;;;6306239;22;20165;-89
2023/08/31 11:36:05;;;;;;;0.22;0.22;;;31.90;51.20;;;;;;6304043;22;20171;-87
2023/08/31 11:38:35;;;;;;;0.40;0.30;;;32.00;51.80;;;;;;6306816;22;20614;-87
2023/08/31 11:41:04;;;;;;;1.92;1.20;;;32.00;51.70;;;;;;6315601;22;20201;-86
2023/08/31 11:43:35;;;;;;;0.57;0.52;;;32.10;51.40;;;;;;6338375;22;20249;-90
2023/08/31 11:46:05;;;;;;;0.40;0.40;;;32.00;50.60;;;;;;6337776;22;20247;-91
2023/08/31 11:48:34;;;;;;;0.35;0.30;;;32.10;50.70;;;;;;6337331;22;20160;-91
2023/08/31 11:51:08;;;;;;;0.40;0.40;;;32.10;50.20;;;;;;6336649;22;20167;-85
2023/08/31 11:53:41;;;;;;;0.20;0.20;;;32.00;49.40;;;;;;6338632;22;20248;-89
2023/08/31 11:56:19;;;;;;;5.20;1.15;;;32.00;50.30;;;;;;6336032;22;20198;-86
2023/08/31 11:58:47;;;;;;;1.85;0.50;;;32.00;50.40;;;;;;6337951;22;20235;-90
2023/08/31 12:01:36;;;;;;;0.50;0.40;;;32.10;50.30;;;;;;6337940;22;20148;-88
2023/08/31 12:04:29;;;;;;;0.57;0.57;;;32.20;49.40;;;;;;6337270;22;20272;-88
2023/08/31 12:07:04;;;;;;;2.38;0.50;;;32.20;49.10;;;;;;6338185;22;20184;-89
2023/08/31 12:09:35;;;;;;;1.38;0.77;;;32.30;49.60;;;;;;6338135;22;20183;-87
2023/08/31 12:12:08;;;;;;;0.28;0.28;;;32.30;48.70;;;;;;6335940;22;20593;-88
2023/08/31 12:14:40;;;;;;;1.38;0.95;;;32.40;48.40;;;;;;6337113;22;20168;-89
2023/08/31 12:17:17;;;;;;;0.30;0.30;;;32.30;48.30;;;;;;6336814;22;20240;-90
2023/08/31 12:19:45;;;;;;;0.63;0.63;;;32.40;48.40;;;;;;6338432;22;20200;-88
2023/08/31 12:22:14;;;;;;;0.63;0.63;;;32.50;47.70;;;;;;6337560;22;20169;-86
2023/08/31 12:24:46;;;;;;;1.90;0.93;;;32.40;47.70;;;;;;6337003;22;20195;-89
2023/08/31 12:27:18;;;;;;;0.52;0.52;;;32.40;47.80;;;;;;6336705;22;20235;-86
2023/08/31 12:29:46;;;;;;;0.73;0.73;;;32.40;47.20;;;;;;6339040;22;20617;-89
2023/08/31 12:32:15;;;;;;;1.15;0.82;;;32.40;47.30;;;;;;6335453;22;20240;-88
2023/08/31 12:34:49;;;;;;;0.50;0.43;;;32.30;47.60;;;;;;6337258;22;20247;-90
2023/08/31 12:37:17;;;;;;;0.22;0.22;;;32.40;47.90;;;;;;6338343;22;20180;-88
2023/08/31 12:39:48;;;;;;;0.45;0.45;;;32.40;47.90;;;;;;6339888;22;20175;-88
2023/08/31 12:42:16;;;;;;;0.30;0.30;;;32.40;48.20;;;;;;6337747;22;20188;-85
2023/08/31 12:44:51;;;;;;;0.98;0.63;;;32.50;48.20;;;;;;6338013;22;20199;-88
2023/08/31 12:47:20;;;;;;;1.35;0.63;;;32.50;48.30;;;;;;6342229;22;20620;-89
2023/08/31 12:49:48;;;;;;;0.60;0.60;;;32.50;47.80;;;;;;6342822;22;20171;-89
2023/08/31 12:52:25;;;;;;;0.25;0.25;;;32.60;47.90;;;;;;6339025;22;20662;-89
2023/08/31 12:54:55;;;;;;;0.25;0.25;;;32.70;46.80;;;;;;6340918;22;20235;-86
2023/08/31 12:57:29;;;;;;;0.20;0.20;;;32.70;46.70;;;;;;6337552;22;20164;-91
2023/08/31 13:00:00;;;;;;;0.35;0.35;;;32.60;45.60;;;;;;6340373;22;20164;-89
2023/08/31 13:02:28;;;;;;;0.40;0.40;;;32.70;46.10;;;;;;6338019;22;20167;-88
2023/08/31 13:04:57;;;;;;;0.35;0.35;;;32.80;46.20;;;;;;6339723;22;20189;-90
2023/08/31 13:07:32;;;;;;;0.20;0.20;;;32.90;45.70;;;;;;6338801;22;20244;-90
2023/08/31 13:10:03;;;;;;;0.20;0.20;;;32.70;45.20;;;;;;6337128;22;20186;-86
2023/08/31 13:12:37;;;;;;;0.50;0.40;;;32.70;45.00;;;;;;6337923;22;20161;-86
2023/08/31 13:15:07;;;;;;;0.38;0.38;;;32.60;44.70;;;;;;6339471;22;20161;-89
2023/08/31 13:17:36;;;;;;;0.50;0.50;;;32.70;45.60;;;;;;6337741;22;20628;-88
2023/08/31 13:20:07;;;;;;;0.30;0.30;;;32.70;45.60;;;;;;6339015;22;20235;-88
2023/08/31 13:22:37;;;;;;;0.22;0.22;;;32.80;45.50;;;;;;6337314;22;20164;-86
2023/08/31 13:25:11;;;;;;;0.45;0.45;;;32.90;45.40;;;;;;6338275;22;20184;-90
2023/08/31 13:27:39;;;;;;;1.33;0.77;;;32.90;45.70;;;;;;6340131;22;20171;-88
2023/08/31 13:30:09;;;;;;;0.20;0.20;;;32.90;45.50;;;;;;6339469;22;20261;-86
2023/08/31 13:32:38;;;;;;;0.20;0.20;;;32.90;45.60;;;;;;6338905;22;20251;-87
2023/08/31 13:35:10;;;;;;;0.82;0.65;;;33.00;46.00;;;;;;6338949;22;20160;-86
2023/08/31 13:37:39;;;;;;;0.25;0.22;;;33.00;45.40;;;;;;6337998;22;20235;-89
2023/08/31 13:40:10;;;;;;;0.20;0.20;;;33.00;44.30;;;;;;6338963;22;20160;-86
2023/08/31 13:42:49;;;;;;;4.28;0.47;;;33.10;44.80;;;;;;6337125;22;20280;-87
2023/08/31 13:45:21;;;;;;;0.32;0.30;;;33.30;45.10;;;;;;6339422;22;20180;-90
2023/08/31 13:47:50;;;;;;;0.13;0.13;;;33.40;44.20;;;;;;6338062;22;20166;-92
2023/08/31 13:50:19;;;;;;;0.40;0.40;;;33.50;44.40;;;;;;6339606;22;20598;-88
2023/08/31 13:52:51;;;;;;;0.82;0.80;;;33.50;42.70;;;;;;6336689;22;20250;-87
2023/08/31 13:55:26;;;;;;;0.57;0.57;;;33.60;43.10;;;;;;6339406;22;20247;-88
2023/08/31 13:57:55;;;;;;;0.40;0.40;;;33.60;42.70;;;;;;6338757;22;20168;-88
2023/08/31 14:00:24;;;;;;;5.72;0.30;;;33.90;42.60;;;;;;6337685;22;20230;-86
2023/08/31 14:02:52;;;;;;;0.30;0.30;;;34.10;42.90;;;;;;6336812;22;20696;-88
2023/08/31 14:05:28;;;;;;;0.70;0.35;;;34.20;41.90;;;;;;6338690;22;20245;-90
2023/08/31 14:07:57;;;;;;;2.50;0.57;;;34.50;41.60;;;;;;6338880;22;20188;-88
2023/08/31 14:10:28;;;;;;;3.97;1.30;;;35.30;40.10;;;;;;6339341;22;20165;-89
2023/08/31 14:13:06;;;;;;;;;;;;;;;;;;;;;
2023/08/31 14:15:48;;;;;;;1.48;0.63;;;35.80;39.70;;;;;;6339878;22;20194;-87